sensor_id;sensor_type;location;lat;lon;timestamp;pressure;altitude;pressure_sealevel;temperature;humidity
75136;BME280;63707;52.212;9.540;2022-10-30T00:01:47;100222.53;;;17.22;60.36
75136;BME280;63707;52.212;9.540;2022-10-30T00:04:12;100231.88;;;17.21;60.57
75136;BME280;63707;52.212;9.540;2022-10-30T00:06:38;100220.31;;;17.07;61.57
75136;BME280;63707;52.212;9.540;2022-10-30T00:09:03;100223.06;;;17.07;61.26
75136;BME280;63707;52.212;9.540;2022-10-30T00:11:29;100224.84;;;17.13;61.31
75136;BME280;63707;52.212;9.540;2022-10-30T00:13:54;100222.50;;;17.05;61.75
75136;BME280;63707;52.212;9.540;2022-10-30T00:16:20;100205.25;;;16.98;62.01
75136;BME280;63707;52.212;9.540;2022-10-30T00:18:47;100207.16;;;17.09;61.44
75136;BME280;63707;52.212;9.540;2022-10-30T00:21:14;100213.34;;;17.16;61.27
75136;BME280;63707;52.212;9.540;2022-10-30T00:23:44;100221.28;;;17.01;62.44
75136;BME280;63707;52.212;9.540;2022-10-30T00:26:10;100227.50;;;17.08;61.52
75136;BME280;63707;52.212;9.540;2022-10-30T00:28:35;100219.50;;;17.07;61.62
75136;BME280;63707;52.212;9.540;2022-10-30T00:31:02;100222.34;;;17.00;62.25
75136;BME280;63707;52.212;9.540;2022-10-30T00:33:28;100211.22;;;17.07;61.57
75136;BME280;63707;52.212;9.540;2022-10-30T00:35:55;100225.00;;;17.07;62.14
75136;BME280;63707;52.212;9.540;2022-10-30T00:38:21;100218.25;;;17.14;61.26
75136;BME280;63707;52.212;9.540;2022-10-30T00:40:46;100224.69;;;17.20;61.21
75136;BME280;63707;52.212;9.540;2022-10-30T00:43:30;100220.06;;;17.09;61.66
75136;BME280;63707;52.212;9.540;2022-10-30T00:45:58;100219.84;;;17.10;61.62
75136;BME280;63707;52.212;9.540;2022-10-30T00:48:25;100213.50;;;16.98;62.19
75136;BME280;63707;52.212;9.540;2022-10-30T00:50:52;100213.63;;;17.03;61.79
75136;BME280;63707;52.212;9.540;2022-10-30T00:53:19;100200.56;;;16.98;61.93
75136;BME280;63707;52.212;9.540;2022-10-30T00:55:50;100203.22;;;16.93;62.18
75136;BME280;63707;52.212;9.540;2022-10-30T00:58:21;100202.41;;;16.93;62.17
75136;BME280;63707;52.212;9.540;2022-10-30T01:00:51;100205.28;;;16.86;62.41
75136;BME280;63707;52.212;9.540;2022-10-30T01:03:18;100205.28;;;16.86;62.75
75136;BME280;63707;52.212;9.540;2022-10-30T01:05:47;100194.72;;;16.95;62.11
75136;BME280;63707;52.212;9.540;2022-10-30T01:08:16;100203.88;;;16.84;62.80
75136;BME280;63707;52.212;9.540;2022-10-30T01:10:43;100205.16;;;16.93;62.34
75136;BME280;63707;52.212;9.540;2022-10-30T01:13:10;100204.31;;;16.92;62.55
75136;BME280;63707;52.212;9.540;2022-10-30T01:15:40;100201.72;;;16.86;62.59
75136;BME280;63707;52.212;9.540;2022-10-30T01:18:20;100200.63;;;16.87;62.71
75136;BME280;63707;52.212;9.540;2022-10-30T01:21:08;100205.19;;;16.81;62.83
75136;BME280;63707;52.212;9.540;2022-10-30T01:23:41;100206.28;;;16.80;63.38
75136;BME280;63707;52.212;9.540;2022-10-30T01:26:17;100198.00;;;16.80;62.82
75136;BME280;63707;52.212;9.540;2022-10-30T01:29:02;100197.56;;;16.72;63.51
75136;BME280;63707;52.212;9.540;2022-10-30T01:31:41;100197.06;;;16.75;63.76
75136;BME280;63707;52.212;9.540;2022-10-30T01:34:17;100197.19;;;16.80;63.13
75136;BME280;63707;52.212;9.540;2022-10-30T01:36:48;100200.41;;;16.77;63.55
75136;BME280;63707;52.212;9.540;2022-10-30T01:39:17;100193.00;;;16.77;63.46
75136;BME280;63707;52.212;9.540;2022-10-30T01:41:45;100188.53;;;16.88;62.71
75136;BME280;63707;52.212;9.540;2022-10-30T01:44:13;100179.44;;;16.87;62.86
75136;BME280;63707;52.212;9.540;2022-10-30T01:46:54;100201.34;;;16.82;62.96
75136;BME280;63707;52.212;9.540;2022-10-30T01:49:42;100193.50;;;16.74;63.46
75136;BME280;63707;52.212;9.540;2022-10-30T01:52:17;100196.69;;;16.83;63.10
75136;BME280;63707;52.212;9.540;2022-10-30T01:54:51;100187.75;;;16.76;63.53
75136;BME280;63707;52.212;9.540;2022-10-30T01:57:25;100193.59;;;16.79;62.98
75136;BME280;63707;52.212;9.540;2022-10-30T01:59:59;100189.03;;;16.85;62.78
75136;BME280;63707;52.212;9.540;2022-10-30T02:02:26;100197.44;;;16.78;63.17
75136;BME280;63707;52.212;9.540;2022-10-30T02:04:52;100190.50;;;16.76;63.34
75136;BME280;63707;52.212;9.540;2022-10-30T02:07:17;100190.00;;;16.79;63.60
75136;BME280;63707;52.212;9.540;2022-10-30T02:09:43;100192.97;;;16.89;62.84
75136;BME280;63707;52.212;9.540;2022-10-30T02:12:09;100185.13;;;16.69;63.60
75136;BME280;63707;52.212;9.540;2022-10-30T02:14:39;100186.63;;;16.88;62.95
75136;BME280;63707;52.212;9.540;2022-10-30T02:17:07;100197.53;;;16.83;62.86
75136;BME280;63707;52.212;9.540;2022-10-30T02:19:34;100202.44;;;16.81;63.33
75136;BME280;63707;52.212;9.540;2022-10-30T02:22:01;100196.53;;;16.89;62.98
75136;BME280;63707;52.212;9.540;2022-10-30T02:24:27;100198.47;;;16.89;62.67
75136;BME280;63707;52.212;9.540;2022-10-30T02:26:53;100202.06;;;16.89;62.70
75136;BME280;63707;52.212;9.540;2022-10-30T02:29:19;100200.53;;;16.82;63.17
75136;BME280;63707;52.212;9.540;2022-10-30T02:31:46;100203.53;;;16.80;63.42
75136;BME280;63707;52.212;9.540;2022-10-30T02:34:12;100193.34;;;16.81;63.16
75136;BME280;63707;52.212;9.540;2022-10-30T02:36:38;100203.63;;;16.85;63.29
75136;BME280;63707;52.212;9.540;2022-10-30T02:39:05;100193.13;;;16.71;64.05
75136;BME280;63707;52.212;9.540;2022-10-30T02:41:31;100190.63;;;16.69;63.75
75136;BME280;63707;52.212;9.540;2022-10-30T02:43:57;100194.81;;;16.72;63.46
75136;BME280;63707;52.212;9.540;2022-10-30T02:46:23;100190.34;;;16.82;62.99
75136;BME280;63707;52.212;9.540;2022-10-30T02:48:48;100190.84;;;16.79;63.13
75136;BME280;63707;52.212;9.540;2022-10-30T02:51:14;100189.91;;;16.62;64.11
75136;BME280;63707;52.212;9.540;2022-10-30T02:53:39;100191.47;;;16.70;63.67
75136;BME280;63707;52.212;9.540;2022-10-30T02:56:08;100185.47;;;16.61;63.94
75136;BME280;63707;52.212;9.540;2022-10-30T02:58:35;100181.53;;;16.57;64.18
75136;BME280;63707;52.212;9.540;2022-10-30T03:01:04;100187.63;;;16.47;64.61
75136;BME280;63707;52.212;9.540;2022-10-30T03:03:30;100194.47;;;16.45;64.84
75136;BME280;63707;52.212;9.540;2022-10-30T03:05:59;100200.44;;;16.42;65.18
75136;BME280;63707;52.212;9.540;2022-10-30T03:08:24;100199.75;;;16.34;65.73
75136;BME280;63707;52.212;9.540;2022-10-30T03:10:49;100198.88;;;16.46;65.10
75136;BME280;63707;52.212;9.540;2022-10-30T03:13:16;100193.41;;;16.34;65.63
75136;BME280;63707;52.212;9.540;2022-10-30T03:15:42;100203.91;;;16.37;65.04
75136;BME280;63707;52.212;9.540;2022-10-30T03:18:07;100196.97;;;16.46;64.64
75136;BME280;63707;52.212;9.540;2022-10-30T03:20:33;100194.94;;;16.42;65.16
75136;BME280;63707;52.212;9.540;2022-10-30T03:22:58;100194.09;;;16.41;64.80
75136;BME280;63707;52.212;9.540;2022-10-30T03:25:24;100191.47;;;16.34;65.08
75136;BME280;63707;52.212;9.540;2022-10-30T03:27:49;100197.56;;;16.48;64.43
75136;BME280;63707;52.212;9.540;2022-10-30T03:30:16;100192.06;;;16.48;64.43
75136;BME280;63707;52.212;9.540;2022-10-30T03:32:42;100190.16;;;16.49;64.71
75136;BME280;63707;52.212;9.540;2022-10-30T03:35:07;100204.00;;;16.54;64.17
75136;BME280;63707;52.212;9.540;2022-10-30T03:37:33;100185.72;;;16.48;64.57
75136;BME280;63707;52.212;9.540;2022-10-30T03:39:58;100198.78;;;16.41;64.97
75136;BME280;63707;52.212;9.540;2022-10-30T03:42:24;100195.06;;;16.47;64.50
75136;BME280;63707;52.212;9.540;2022-10-30T03:44:49;100193.63;;;16.44;64.48
75136;BME280;63707;52.212;9.540;2022-10-30T03:47:16;100194.09;;;16.41;64.61
75136;BME280;63707;52.212;9.540;2022-10-30T03:49:41;100195.06;;;16.35;65.09
75136;BME280;63707;52.212;9.540;2022-10-30T03:52:07;100196.16;;;16.34;65.11
75136;BME280;63707;52.212;9.540;2022-10-30T03:54:32;100210.50;;;16.36;65.03
75136;BME280;63707;52.212;9.540;2022-10-30T03:56:58;100200.34;;;16.25;65.26
75136;BME280;63707;52.212;9.540;2022-10-30T03:59:23;100210.88;;;16.16;65.81
75136;BME280;63707;52.212;9.540;2022-10-30T04:01:49;100216.25;;;16.11;65.70
75136;BME280;63707;52.212;9.540;2022-10-30T04:04:16;100220.53;;;16.07;66.13
75136;BME280;63707;52.212;9.540;2022-10-30T04:06:41;100214.44;;;16.05;66.03
75136;BME280;63707;52.212;9.540;2022-10-30T04:09:07;100211.31;;;16.01;66.24
75136;BME280;63707;52.212;9.540;2022-10-30T04:11:32;100204.03;;;15.95;66.51
75136;BME280;63707;52.212;9.540;2022-10-30T04:13:58;100209.28;;;15.85;66.80
75136;BME280;63707;52.212;9.540;2022-10-30T04:16:23;100207.00;;;15.82;67.26
75136;BME280;63707;52.212;9.540;2022-10-30T04:18:49;100206.28;;;15.75;67.49
75136;BME280;63707;52.212;9.540;2022-10-30T04:21:15;100208.91;;;15.70;67.56
75136;BME280;63707;52.212;9.540;2022-10-30T04:23:41;100200.53;;;15.65;67.54
75136;BME280;63707;52.212;9.540;2022-10-30T04:26:06;100204.88;;;15.54;68.06
75136;BME280;63707;52.212;9.540;2022-10-30T04:28:32;100208.94;;;15.52;68.10
75136;BME280;63707;52.212;9.540;2022-10-30T04:30:57;100206.56;;;15.55;68.18
75136;BME280;63707;52.212;9.540;2022-10-30T04:33:23;100206.56;;;15.55;68.18
75136;BME280;63707;52.212;9.540;2022-10-30T04:35:48;100209.06;;;15.57;68.09
75136;BME280;63707;52.212;9.540;2022-10-30T04:38:15;100206.28;;;15.45;68.40
75136;BME280;63707;52.212;9.540;2022-10-30T04:40:44;100211.28;;;15.36;68.84
75136;BME280;63707;52.212;9.540;2022-10-30T04:43:10;100192.34;;;15.47;68.61
75136;BME280;63707;52.212;9.540;2022-10-30T04:45:36;100197.47;;;15.43;68.24
75136;BME280;63707;52.212;9.540;2022-10-30T04:48:03;100193.16;;;15.35;69.08
75136;BME280;63707;52.212;9.540;2022-10-30T04:50:32;100187.91;;;15.46;68.39
75136;BME280;63707;52.212;9.540;2022-10-30T04:52:59;100201.16;;;15.37;68.77
75136;BME280;63707;52.212;9.540;2022-10-30T04:55:26;100193.50;;;15.39;68.49
75136;BME280;63707;52.212;9.540;2022-10-30T04:57:54;100186.59;;;15.48;68.08
75136;BME280;63707;52.212;9.540;2022-10-30T05:00:20;100180.84;;;15.68;67.60
75136;BME280;63707;52.212;9.540;2022-10-30T05:02:46;100172.38;;;15.69;67.32
75136;BME280;63707;52.212;9.540;2022-10-30T05:05:11;100191.34;;;15.71;67.37
75136;BME280;63707;52.212;9.540;2022-10-30T05:07:36;100185.97;;;15.64;67.67
75136;BME280;63707;52.212;9.540;2022-10-30T05:10:02;100182.28;;;15.70;67.02
75136;BME280;63707;52.212;9.540;2022-10-30T05:12:29;100191.34;;;15.71;67.38
75136;BME280;63707;52.212;9.540;2022-10-30T05:14:54;100191.38;;;15.53;68.12
75136;BME280;63707;52.212;9.540;2022-10-30T05:17:20;100197.44;;;15.61;67.56
75136;BME280;63707;52.212;9.540;2022-10-30T05:19:45;100193.06;;;15.54;68.48
75136;BME280;63707;52.212;9.540;2022-10-30T05:22:11;100198.72;;;15.59;68.17
75136;BME280;63707;52.212;9.540;2022-10-30T05:24:37;100192.09;;;15.48;68.23
75136;BME280;63707;52.212;9.540;2022-10-30T05:27:02;100187.69;;;15.47;68.58
75136;BME280;63707;52.212;9.540;2022-10-30T05:29:29;100197.78;;;15.35;68.62
75136;BME280;63707;52.212;9.540;2022-10-30T05:31:55;100186.47;;;15.43;68.49
75136;BME280;63707;52.212;9.540;2022-10-30T05:34:20;100190.91;;;15.44;68.52
75136;BME280;63707;52.212;9.540;2022-10-30T05:36:46;100181.19;;;15.30;68.92
75136;BME280;63707;52.212;9.540;2022-10-30T05:39:11;100193.16;;;15.35;68.78
75136;BME280;63707;52.212;9.540;2022-10-30T05:41:37;100194.56;;;15.26;69.04
75136;BME280;63707;52.212;9.540;2022-10-30T05:44:02;100200.03;;;15.26;69.42
75136;BME280;63707;52.212;9.540;2022-10-30T05:46:29;100199.91;;;15.21;69.21
75136;BME280;63707;52.212;9.540;2022-10-30T05:48:55;100197.41;;;15.20;69.30
75136;BME280;63707;52.212;9.540;2022-10-30T05:51:21;100193.94;;;15.24;69.19
75136;BME280;63707;52.212;9.540;2022-10-30T05:53:46;100198.22;;;15.20;69.06
75136;BME280;63707;52.212;9.540;2022-10-30T05:56:12;100196.72;;;15.06;70.47
75136;BME280;63707;52.212;9.540;2022-10-30T05:58:37;100197.63;;;15.18;69.33
75136;BME280;63707;52.212;9.540;2022-10-30T06:01:04;100213.03;;;15.01;70.62
75136;BME280;63707;52.212;9.540;2022-10-30T06:03:31;100214.19;;;14.93;70.65
75136;BME280;63707;52.212;9.540;2022-10-30T06:05:57;100209.78;;;14.92;70.62
75136;BME280;63707;52.212;9.540;2022-10-30T06:08:23;100213.47;;;14.86;71.03
75136;BME280;63707;52.212;9.540;2022-10-30T06:10:48;100209.09;;;14.97;70.18
75136;BME280;63707;52.212;9.540;2022-10-30T06:13:13;100199.13;;;14.84;71.03
75136;BME280;63707;52.212;9.540;2022-10-30T06:15:39;100209.50;;;14.82;71.20
75136;BME280;63707;52.212;9.540;2022-10-30T06:18:04;100213.53;;;14.79;71.91
75136;BME280;63707;52.212;9.540;2022-10-30T06:20:31;100220.84;;;14.86;71.25
75136;BME280;63707;52.212;9.540;2022-10-30T06:22:58;100221.69;;;14.86;71.22
75136;BME280;63707;52.212;9.540;2022-10-30T06:25:25;100223.97;;;14.89;71.00
75136;BME280;63707;52.212;9.540;2022-10-30T06:27:51;100231.53;;;14.75;71.16
75136;BME280;63707;52.212;9.540;2022-10-30T06:30:17;100236.56;;;14.78;71.41
75136;BME280;63707;52.212;9.540;2022-10-30T06:32:42;100231.91;;;14.79;71.30
75136;BME280;63707;52.212;9.540;2022-10-30T06:35:08;100229.03;;;14.74;71.61
75136;BME280;63707;52.212;9.540;2022-10-30T06:37:35;100236.06;;;14.63;72.31
75136;BME280;63707;52.212;9.540;2022-10-30T06:40:04;100230.53;;;14.70;71.89
75136;BME280;63707;52.212;9.540;2022-10-30T06:42:30;100241.75;;;14.68;71.69
75136;BME280;63707;52.212;9.540;2022-10-30T06:44:56;100249.56;;;14.65;72.18
75136;BME280;63707;52.212;9.540;2022-10-30T06:47:21;100234.66;;;14.79;71.28
75136;BME280;63707;52.212;9.540;2022-10-30T06:49:47;100251.50;;;14.83;70.93
75136;BME280;63707;52.212;9.540;2022-10-30T06:52:12;100242.94;;;14.91;70.99
75136;BME280;63707;52.212;9.540;2022-10-30T06:54:39;100243.56;;;14.93;70.97
75136;BME280;63707;52.212;9.540;2022-10-30T06:57:04;100251.16;;;14.91;71.26
75136;BME280;63707;52.212;9.540;2022-10-30T06:59:30;100255.50;;;14.98;70.88
75136;BME280;63707;52.212;9.540;2022-10-30T07:01:55;100260.53;;;15.01;70.52
75136;BME280;63707;52.212;9.540;2022-10-30T07:04:21;100253.75;;;15.04;70.85
75136;BME280;63707;52.212;9.540;2022-10-30T07:06:46;100250.69;;;15.12;70.55
75136;BME280;63707;52.212;9.540;2022-10-30T07:09:12;100251.09;;;15.16;70.54
75136;BME280;63707;52.212;9.540;2022-10-30T07:11:39;100250.94;;;15.40;69.27
75136;BME280;63707;52.212;9.540;2022-10-30T07:14:10;100253.78;;;15.34;69.55
75136;BME280;63707;52.212;9.540;2022-10-30T07:16:35;100265.50;;;15.41;69.95
75136;BME280;63707;52.212;9.540;2022-10-30T07:19:02;100263.59;;;15.41;69.87
75136;BME280;63707;52.212;9.540;2022-10-30T07:21:28;100249.81;;;15.60;68.85
75136;BME280;63707;52.212;9.540;2022-10-30T07:23:54;100265.22;;;15.91;67.47
75136;BME280;63707;52.212;9.540;2022-10-30T07:26:20;100255.44;;;16.77;64.91
75136;BME280;63707;52.212;9.540;2022-10-30T07:28:47;100257.56;;;17.67;61.88
75136;BME280;63707;52.212;9.540;2022-10-30T07:31:12;100263.38;;;18.49;59.11
75136;BME280;63707;52.212;9.540;2022-10-30T07:33:38;100246.44;;;19.01;57.11
75136;BME280;63707;52.212;9.540;2022-10-30T07:36:04;100252.00;;;20.08;54.29
75136;BME280;63707;52.212;9.540;2022-10-30T07:38:32;100248.28;;;19.93;54.59
75136;BME280;63707;52.212;9.540;2022-10-30T07:40:59;100250.25;;;20.66;52.29
75136;BME280;63707;52.212;9.540;2022-10-30T07:43:25;100251.81;;;20.99;52.04
75136;BME280;63707;52.212;9.540;2022-10-30T07:45:52;100250.41;;;21.85;49.29
75136;BME280;63707;52.212;9.540;2022-10-30T07:48:17;100247.69;;;22.10;49.01
75136;BME280;63707;52.212;9.540;2022-10-30T07:50:43;100249.22;;;21.40;49.25
75136;BME280;63707;52.212;9.540;2022-10-30T07:53:11;100241.31;;;22.30;47.33
75136;BME280;63707;52.212;9.540;2022-10-30T07:55:37;100244.34;;;22.13;47.04
75136;BME280;63707;52.212;9.540;2022-10-30T07:58:02;100239.25;;;23.46;45.11
75136;BME280;63707;52.212;9.540;2022-10-30T08:00:28;100249.03;;;22.48;46.22
75136;BME280;63707;52.212;9.540;2022-10-30T08:02:56;100239.34;;;23.80;44.41
75136;BME280;63707;52.212;9.540;2022-10-30T08:05:22;100241.78;;;22.73;44.99
75136;BME280;63707;52.212;9.540;2022-10-30T08:07:47;100242.53;;;24.36;42.51
75136;BME280;63707;52.212;9.540;2022-10-30T08:10:13;100243.94;;;24.34;41.50
75136;BME280;63707;52.212;9.540;2022-10-30T08:12:38;100241.34;;;24.08;42.72
75136;BME280;63707;52.212;9.540;2022-10-30T08:15:06;100236.03;;;24.99;40.51
75136;BME280;63707;52.212;9.540;2022-10-30T08:17:32;100253.28;;;20.65;51.28
75136;BME280;63707;52.212;9.540;2022-10-30T08:20:07;100235.69;;;23.40;46.02
75136;BME280;63707;52.212;9.540;2022-10-30T08:22:33;100237.19;;;24.06;45.11
75136;BME280;63707;52.212;9.540;2022-10-30T08:24:59;100249.19;;;23.03;46.51
75136;BME280;63707;52.212;9.540;2022-10-30T08:27:24;100247.94;;;21.98;51.05
75136;BME280;63707;52.212;9.540;2022-10-30T08:29:50;100256.81;;;22.51;47.80
75136;BME280;63707;52.212;9.540;2022-10-30T08:32:15;100258.22;;;23.88;45.06
75136;BME280;63707;52.212;9.540;2022-10-30T08:34:40;100266.00;;;22.26;49.59
75136;BME280;63707;52.212;9.540;2022-10-30T08:37:07;100254.22;;;23.65;46.04
75136;BME280;63707;52.212;9.540;2022-10-30T08:39:33;100253.03;;;24.97;42.47
75136;BME280;63707;52.212;9.540;2022-10-30T08:41:58;100259.41;;;23.28;46.21
75136;BME280;63707;52.212;9.540;2022-10-30T08:44:24;100279.53;;;18.79;58.38
75136;BME280;63707;52.212;9.540;2022-10-30T08:46:49;100280.66;;;18.28;60.54
75136;BME280;63707;52.212;9.540;2022-10-30T08:49:15;100293.28;;;17.50;63.44
75136;BME280;63707;52.212;9.540;2022-10-30T08:51:40;100284.38;;;17.71;63.18
75136;BME280;63707;52.212;9.540;2022-10-30T08:54:09;100287.69;;;18.02;61.59
75136;BME280;63707;52.212;9.540;2022-10-30T08:56:35;100269.28;;;18.41;60.29
75136;BME280;63707;52.212;9.540;2022-10-30T08:59:00;100275.94;;;18.78;57.24
75136;BME280;63707;52.212;9.540;2022-10-30T09:01:26;100273.84;;;19.29;56.17
75136;BME280;63707;52.212;9.540;2022-10-30T09:03:51;100272.22;;;18.90;55.92
75136;BME280;63707;52.212;9.540;2022-10-30T09:06:17;100278.69;;;18.95;57.63
75136;BME280;63707;52.212;9.540;2022-10-30T09:08:43;100275.28;;;19.10;55.79
75136;BME280;63707;52.212;9.540;2022-10-30T09:11:11;100280.16;;;18.64;57.75
75136;BME280;63707;52.212;9.540;2022-10-30T09:13:36;100282.78;;;18.93;57.61
75136;BME280;63707;52.212;9.540;2022-10-30T09:16:03;100280.81;;;18.38;61.80
75136;BME280;63707;52.212;9.540;2022-10-30T09:18:29;100281.69;;;18.21;63.58
75136;BME280;63707;52.212;9.540;2022-10-30T09:20:55;100288.25;;;18.37;63.76
75136;BME280;63707;52.212;9.540;2022-10-30T09:23:20;100280.00;;;18.04;62.96
75136;BME280;63707;52.212;9.540;2022-10-30T09:25:46;100287.28;;;18.10;64.45
75136;BME280;63707;52.212;9.540;2022-10-30T09:28:12;100294.13;;;18.74;65.81
75136;BME280;63707;52.212;9.540;2022-10-30T09:30:38;100293.16;;;18.85;61.76
75136;BME280;63707;52.212;9.540;2022-10-30T09:33:04;100290.13;;;18.65;59.99
75136;BME280;63707;52.212;9.540;2022-10-30T09:35:29;100285.94;;;19.01;59.35
75136;BME280;63707;52.212;9.540;2022-10-30T09:37:56;100292.03;;;19.25;56.53
75136;BME280;63707;52.212;9.540;2022-10-30T09:40:29;100287.19;;;19.37;57.09
75136;BME280;63707;52.212;9.540;2022-10-30T09:43:03;100292.59;;;19.27;58.54
75136;BME280;63707;52.212;9.540;2022-10-30T09:45:50;100285.22;;;19.55;58.07
75136;BME280;63707;52.212;9.540;2022-10-30T09:48:40;100288.13;;;19.21;57.56
75136;BME280;63707;52.212;9.540;2022-10-30T09:51:21;100286.66;;;19.57;57.24
75136;BME280;63707;52.212;9.540;2022-10-30T09:53:58;100287.41;;;19.79;56.04
75136;BME280;63707;52.212;9.540;2022-10-30T09:56:30;100285.22;;;20.08;56.79
75136;BME280;63707;52.212;9.540;2022-10-30T09:59:03;100279.31;;;20.32;55.22
75136;BME280;63707;52.212;9.540;2022-10-30T10:01:47;100282.59;;;19.43;57.20
75136;BME280;63707;52.212;9.540;2022-10-30T10:04:22;100285.47;;;20.07;56.25
75136;BME280;63707;52.212;9.540;2022-10-30T10:06:51;100281.38;;;20.41;55.79
75136;BME280;63707;52.212;9.540;2022-10-30T10:09:21;100287.16;;;20.08;56.18
75136;BME280;63707;52.212;9.540;2022-10-30T10:11:52;100286.81;;;20.68;55.41
75136;BME280;63707;52.212;9.540;2022-10-30T10:14:21;100285.56;;;20.17;55.12
75136;BME280;63707;52.212;9.540;2022-10-30T10:16:51;100290.44;;;20.05;55.95
75136;BME280;63707;52.212;9.540;2022-10-30T10:19:19;100282.03;;;20.27;56.05
75136;BME280;63707;52.212;9.540;2022-10-30T10:21:49;100285.81;;;21.37;52.48
75136;BME280;63707;52.212;9.540;2022-10-30T10:24:18;100279.28;;;22.65;48.80
75136;BME280;63707;52.212;9.540;2022-10-30T10:26:47;100290.59;;;21.67;52.15
75136;BME280;63707;52.212;9.540;2022-10-30T10:29:30;100279.72;;;23.23;47.60
75136;BME280;63707;52.212;9.540;2022-10-30T10:32:11;100271.44;;;23.03;47.02
75136;BME280;63707;52.212;9.540;2022-10-30T10:34:51;100258.16;;;25.57;42.58
75136;BME280;63707;52.212;9.540;2022-10-30T10:37:29;100263.09;;;25.22;42.53
75136;BME280;63707;52.212;9.540;2022-10-30T10:40:11;100255.84;;;26.66;39.50
75136;BME280;63707;52.212;9.540;2022-10-30T10:42:43;100261.34;;;26.39;40.12
75136;BME280;63707;52.212;9.540;2022-10-30T10:45:19;100255.06;;;26.15;39.68
75136;BME280;63707;52.212;9.540;2022-10-30T10:50:50;100242.50;;;27.32;37.53
75136;BME280;63707;52.212;9.540;2022-10-30T10:53:24;100249.81;;;25.76;39.50
75136;BME280;63707;52.212;9.540;2022-10-30T10:55:56;100229.47;;;27.77;35.19
75136;BME280;63707;52.212;9.540;2022-10-30T10:58:27;100250.63;;;25.15;39.61
75136;BME280;63707;52.212;9.540;2022-10-30T11:00:55;100232.72;;;27.57;36.21
75136;BME280;63707;52.212;9.540;2022-10-30T11:03:28;100237.47;;;25.39;40.55
75136;BME280;63707;52.212;9.540;2022-10-30T11:05:59;100244.06;;;22.45;48.16
75136;BME280;63707;52.212;9.540;2022-10-30T11:08:30;100244.03;;;21.99;49.34
75136;BME280;63707;52.212;9.540;2022-10-30T11:10:58;100248.47;;;20.97;54.90
75136;BME280;63707;52.212;9.540;2022-10-30T11:13:25;100237.03;;;22.88;47.46
75136;BME280;63707;52.212;9.540;2022-10-30T11:15:58;100239.63;;;22.19;49.41
75136;BME280;63707;52.212;9.540;2022-10-30T11:18:30;100236.84;;;22.19;49.85
75136;BME280;63707;52.212;9.540;2022-10-30T11:20:59;100234.47;;;21.24;49.38
75136;BME280;63707;52.212;9.540;2022-10-30T11:23:33;100241.97;;;20.71;51.01
75136;BME280;63707;52.212;9.540;2022-10-30T11:26:00;100245.44;;;21.04;50.52
75136;BME280;63707;52.212;9.540;2022-10-30T11:28:34;100228.97;;;21.29;50.84
75136;BME280;63707;52.212;9.540;2022-10-30T11:31:16;100240.91;;;21.40;50.43
75136;BME280;63707;52.212;9.540;2022-10-30T11:33:44;100225.16;;;20.83;50.67
75136;BME280;63707;52.212;9.540;2022-10-30T11:36:12;100222.34;;;21.41;49.46
75136;BME280;63707;52.212;9.540;2022-10-30T11:38:38;100215.75;;;22.23;48.92
75136;BME280;63707;52.212;9.540;2022-10-30T11:41:04;100204.69;;;23.62;43.21
75136;BME280;63707;52.212;9.540;2022-10-30T11:43:30;100211.94;;;21.05;49.16
75136;BME280;63707;52.212;9.540;2022-10-30T11:45:55;100209.72;;;21.08;50.14
75136;BME280;63707;52.212;9.540;2022-10-30T11:48:23;100215.72;;;22.43;46.54
75136;BME280;63707;52.212;9.540;2022-10-30T11:50:57;100203.56;;;22.24;46.40
75136;BME280;63707;52.212;9.540;2022-10-30T11:53:25;100207.31;;;22.74;45.23
75136;BME280;63707;52.212;9.540;2022-10-30T11:55:56;100203.81;;;22.17;47.62
75136;BME280;63707;52.212;9.540;2022-10-30T11:58:24;100204.63;;;21.57;47.88
75136;BME280;63707;52.212;9.540;2022-10-30T12:01:01;100200.31;;;21.14;49.77
75136;BME280;63707;52.212;9.540;2022-10-30T12:03:33;100201.84;;;21.47;49.41
75136;BME280;63707;52.212;9.540;2022-10-30T12:06:09;100198.47;;;21.34;48.64
75136;BME280;63707;52.212;9.540;2022-10-30T12:08:34;100191.56;;;21.42;49.43
75136;BME280;63707;52.212;9.540;2022-10-30T12:11:02;100185.16;;;22.53;47.22
75136;BME280;63707;52.212;9.540;2022-10-30T12:13:34;100172.72;;;22.15;47.52
75136;BME280;63707;52.212;9.540;2022-10-30T12:16:12;100171.59;;;22.37;46.48
75136;BME280;63707;52.212;9.540;2022-10-30T12:18:38;100174.03;;;22.58;46.84
75136;BME280;63707;52.212;9.540;2022-10-30T12:21:05;100171.91;;;23.05;46.02
75136;BME280;63707;52.212;9.540;2022-10-30T12:23:32;100174.56;;;23.30;46.23
75136;BME280;63707;52.212;9.540;2022-10-30T12:26:00;100183.00;;;21.94;48.66
75136;BME280;63707;52.212;9.540;2022-10-30T12:28:28;100182.69;;;21.50;49.85
75136;BME280;63707;52.212;9.540;2022-10-30T12:30:58;100182.69;;;21.40;50.56
75136;BME280;63707;52.212;9.540;2022-10-30T12:33:28;100169.41;;;21.93;49.33
75136;BME280;63707;52.212;9.540;2022-10-30T12:36:00;100174.91;;;21.32;52.29
75136;BME280;63707;52.212;9.540;2022-10-30T12:38:34;100170.50;;;21.51;51.66
75136;BME280;63707;52.212;9.540;2022-10-30T12:41:07;100162.75;;;21.58;51.14
75136;BME280;63707;52.212;9.540;2022-10-30T12:43:38;100169.66;;;21.35;51.65
75136;BME280;63707;52.212;9.540;2022-10-30T12:46:16;100164.13;;;21.35;51.43
75136;BME280;63707;52.212;9.540;2022-10-30T12:48:48;100163.84;;;21.42;52.23
75136;BME280;63707;52.212;9.540;2022-10-30T12:51:18;100166.84;;;20.53;54.41
75136;BME280;63707;52.212;9.540;2022-10-30T12:53:50;100167.59;;;21.00;54.64
75136;BME280;63707;52.212;9.540;2022-10-30T12:56:23;100163.84;;;21.32;52.15
75136;BME280;63707;52.212;9.540;2022-10-30T12:58:56;100159.97;;;21.58;52.05